X-preSS Montecervino — 9HA3980 — position and weather

sailwx.info

Track history (hours):
 
Tides and Currents Weather Stations Pressure Air Temp Water Temp Dewpoint Dewpoint Depression Visibility Wind Speed Wind Dir Waves Ship Positions

X-preSS Montecervino

Last reported at 2018-Jan-22 09:15 UTC. Time now 2018-Jan-24 01:55 UTC.
Position N 36°46' W 009°41'.

Length 134 m; draft 6.1 m.

Type: Ship. MMSI: 256677000.

Date/timePositionNaut miles runAvg speedWind from/ knotsBaromVisibWave heightAir tempDewpointWater temp
2018-Jan-22 09:15N 36°46' W 009°41'7012.4
2018-Jan-22 03:37N 37°55' W 009°32'112.7
2018-Jan-22 03:30N 37°57' W 009°32'612.7
2018-Jan-22 03:00N 38°03' W 009°31'612.6
2018-Jan-22 02:30N 38°09' W 009°30'1012.9
2018-Jan-22 01:43N 38°19' W 009°27'312.9
2018-Jan-22 01:28N 38°22' W 009°27'712.5
2018-Jan-22 00:56N 38°29' W 009°25'512.3
2018-Jan-22 00:30N 38°34' W 009°24'612.3
2018-Jan-21 23:59N 38°39' W 009°19'8 0.7
2018-Jan-21 12:07N 38°42' W 009°10'0 0.4
2018-Jan-21 11:53N 38°42' W 009°10'2 5.5
2018-Jan-21 11:30N 38°41' W 009°13'4 9.1
2018-Jan-21 11:00N 38°40' W 009°18'4 8.1
2018-Jan-21 10:31N 38°38' W 009°22'4 7.5
2018-Jan-21 10:00N 38°37' W 009°26'4 8.4
2018-Jan-21 09:30N 38°37' W 009°32'4 7.8
2018-Jan-21 09:01N 38°38' W 009°37'4 7.3
2018-Jan-21 08:31N 38°39' W 009°41'4 8.3
2018-Jan-21 08:00N 38°43' W 009°43'612.6
2018-Jan-21 07:31N 38°49' W 009°43'612.6
2018-Jan-21 07:00N 38°56' W 009°44'612.6
2018-Jan-21 06:31N 39°02' W 009°44'612.8
2018-Jan-21 06:01N 39°08' W 009°45'612.3
2018-Jan-21 05:31N 39°14' W 009°46'1512.6
2018-Jan-21 04:20N 39°29' W 009°46'10712.2
2018-Jan-20 19:37N 41°05' W 008°46'112.0
2018-Jan-20 19:30N 41°06' W 008°45'510.0
2018-Jan-20 19:00N 41°11' W 008°42'1 2.4
2018-Jan-20 18:28N 41°12' W 008°41'0 0.0
2018-Jan-20 17:58N 41°12' W 008°41'0 0.0
2018-Jan-20 17:28N 41°12' W 008°41'0 0.0
2018-Jan-20 16:58N 41°12' W 008°41'0 0.0
2018-Jan-20 16:30N 41°12' W 008°41'0 0.0
2018-Jan-20 16:00N 41°12' W 008°41'0 0.0
2018-Jan-20 15:30N 41°12' W 008°41'0 0.0
2018-Jan-20 15:00N 41°12' W 008°41'0 0.0
2018-Jan-20 14:30N 41°12' W 008°41'0 0.0
2018-Jan-20 13:59N 41°12' W 008°41'0 0.0
2018-Jan-20 13:29N 41°12' W 008°41'0 0.0
2018-Jan-20 12:59N 41°12' W 008°41'0 0.0
2018-Jan-20 12:29N 41°12' W 008°41'0 0.0
2018-Jan-20 11:58N 41°12' W 008°41'0 0.0
2018-Jan-20 11:28N 41°12' W 008°41'0 0.0
2018-Jan-20 10:58N 41°12' W 008°41'0 0.0
2018-Jan-20 10:28N 41°12' W 008°41'0 0.0
2018-Jan-20 09:55N 41°12' W 008°41'0 0.0
2018-Jan-20 09:30N 41°12' W 008°41'0 0.0
2018-Jan-20 09:00N 41°12' W 008°41'0 0.0
2018-Jan-20 08:30N 41°12' W 008°41'0 0.0
2018-Jan-20 08:00N 41°12' W 008°41'0 0.0
2018-Jan-20 07:30N 41°12' W 008°41'0 0.0
2018-Jan-20 06:59N 41°12' W 008°41'0 0.0
2018-Jan-20 06:29N 41°12' W 008°41'0 0.0
2018-Jan-20 05:59N 41°12' W 008°41'0 0.0
2018-Jan-20 05:29N 41°12' W 008°41'0 0.0
2018-Jan-20 04:58N 41°12' W 008°41'0 0.0
2018-Jan-20 04:28N 41°12' W 008°41'0 0.0
2018-Jan-20 03:58N 41°12' W 008°41'0 0.0
2018-Jan-20 03:28N 41°12' W 008°41'0 0.0
2018-Jan-20 02:58N 41°12' W 008°41'0 0.0
2018-Jan-20 02:30N 41°12' W 008°41'0 0.0
2018-Jan-20 02:00N 41°12' W 008°41'0 0.0
2018-Jan-20 01:30N 41°12' W 008°41'0 0.0
2018-Jan-20 01:00N 41°12' W 008°41'0 0.7
2018-Jan-20 00:30N 41°11' W 008°41'2 4.7
2018-Jan-20 00:00N 41°09' W 008°43'3 5.8
2018-Jan-19 23:30N 41°11' W 008°46'123 4.3
2018-Jan-18 19:01N 39°18' W 009°48'412.1
2018-Jan-18 18:39N 39°14' W 009°49'212.2
2018-Jan-18 18:30N 39°12' W 009°49'612.1
2018-Jan-18 18:00N 39°06' W 009°50'612.0
2018-Jan-18 17:30N 38°60' W 009°51'612.0
2018-Jan-18 17:00N 38°54' W 009°51'611.2
2018-Jan-18 16:30N 38°48' W 009°52'611.3
2018-Jan-18 16:00N 38°43' W 009°52'611.2
2018-Jan-18 15:30N 38°37' W 009°50'510.9
2018-Jan-18 15:00N 38°32' W 009°48'510.7
2018-Jan-18 14:30N 38°27' W 009°47'510.8
2018-Jan-18 14:00N 38°21' W 009°45'611.6
2018-Jan-18 13:31N 38°16' W 009°44'611.8
2018-Jan-18 12:59N 38°10' W 009°42'611.6
2018-Jan-18 12:30N 38°04' W 009°41'611.7
2018-Jan-18 12:00N 37°59' W 009°39'611.8
2018-Jan-18 11:30N 37°53' W 009°37'611.8
2018-Jan-18 11:00N 37°47' W 009°36'611.8
2018-Jan-18 10:30N 37°41' W 009°34'712.2
2018-Jan-18 09:57N 37°35' W 009°32'3612.5
2018-Jan-18 07:05N 36°60' W 009°22'212.2
2018-Jan-18 06:58N 36°58' W 009°22'612.1
2018-Jan-18 06:30N 36°53' W 009°20'612.3
2018-Jan-18 06:00N 36°48' W 009°15'1012.3
2018-Jan-18 05:10N 36°43' W 009°04'312.8
2018-Jan-18 04:56N 36°42' W 009°00'613.0
2018-Jan-18 04:30N 36°41' W 008°54'713.5
2018-Jan-18 04:00N 36°39' W 008°46'713.5
2018-Jan-18 03:30N 36°37' W 008°38'713.5
2018-Jan-18 03:00N 36°35' W 008°30'713.8
2018-Jan-18 02:30N 36°33' W 008°21'713.8
2018-Jan-18 01:58N 36°31' W 008°12'  
Track history (hours):
 
Tides and Currents Weather Stations Pressure Air Temp Water Temp Dewpoint Dewpoint Depression Visibility Wind Speed Wind Dir Waves Ship Positions

X-preSS Montecervino

Last reported at 2018-Jan-22 09:15 UTC. Time now 2018-Jan-24 01:55 UTC.
Position N 36°46' W 009°41'.

Length 134 m; draft 6.1 m.

Type: Ship. MMSI: 256677000.

Date/timePositionNaut miles runAvg speedWind from/ knotsBaromVisibWave heightAir tempDewpointWater temp
2018-Jan-22 09:15N 36°46' W 009°41'7012.4
2018-Jan-22 03:37N 37°55' W 009°32'112.7
2018-Jan-22 03:30N 37°57' W 009°32'612.7
2018-Jan-22 03:00N 38°03' W 009°31'612.6
2018-Jan-22 02:30N 38°09' W 009°30'1012.9
2018-Jan-22 01:43N 38°19' W 009°27'312.9
2018-Jan-22 01:28N 38°22' W 009°27'712.5
2018-Jan-22 00:56N 38°29' W 009°25'512.3
2018-Jan-22 00:30N 38°34' W 009°24'612.3
2018-Jan-21 23:59N 38°39' W 009°19'8 0.7
2018-Jan-21 12:07N 38°42' W 009°10'0 0.4
2018-Jan-21 11:53N 38°42' W 009°10'2 5.5
2018-Jan-21 11:30N 38°41' W 009°13'4 9.1
2018-Jan-21 11:00N 38°40' W 009°18'4 8.1
2018-Jan-21 10:31N 38°38' W 009°22'4 7.5
2018-Jan-21 10:00N 38°37' W 009°26'4 8.4
2018-Jan-21 09:30N 38°37' W 009°32'4 7.8
2018-Jan-21 09:01N 38°38' W 009°37'4 7.3
2018-Jan-21 08:31N 38°39' W 009°41'4 8.3
2018-Jan-21 08:00N 38°43' W 009°43'612.6
2018-Jan-21 07:31N 38°49' W 009°43'612.6
2018-Jan-21 07:00N 38°56' W 009°44'612.6
2018-Jan-21 06:31N 39°02' W 009°44'612.8
2018-Jan-21 06:01N 39°08' W 009°45'612.3
2018-Jan-21 05:31N 39°14' W 009°46'1512.6
2018-Jan-21 04:20N 39°29' W 009°46'10712.2
2018-Jan-20 19:37N 41°05' W 008°46'112.0
2018-Jan-20 19:30N 41°06' W 008°45'510.0
2018-Jan-20 19:00N 41°11' W 008°42'1 2.4
2018-Jan-20 18:28N 41°12' W 008°41'0 0.0
2018-Jan-20 17:58N 41°12' W 008°41'0 0.0
2018-Jan-20 17:28N 41°12' W 008°41'0 0.0
2018-Jan-20 16:58N 41°12' W 008°41'0 0.0
2018-Jan-20 16:30N 41°12' W 008°41'0 0.0
2018-Jan-20 16:00N 41°12' W 008°41'0 0.0
2018-Jan-20 15:30N 41°12' W 008°41'0 0.0
2018-Jan-20 15:00N 41°12' W 008°41'0 0.0
2018-Jan-20 14:30N 41°12' W 008°41'0 0.0
2018-Jan-20 13:59N 41°12' W 008°41'0 0.0
2018-Jan-20 13:29N 41°12' W 008°41'0 0.0
2018-Jan-20 12:59N 41°12' W 008°41'0 0.0
2018-Jan-20 12:29N 41°12' W 008°41'0 0.0
2018-Jan-20 11:58N 41°12' W 008°41'0 0.0
2018-Jan-20 11:28N 41°12' W 008°41'0 0.0
2018-Jan-20 10:58N 41°12' W 008°41'0 0.0
2018-Jan-20 10:28N 41°12' W 008°41'0 0.0
2018-Jan-20 09:55N 41°12' W 008°41'0 0.0
2018-Jan-20 09:30N 41°12' W 008°41'0 0.0
2018-Jan-20 09:00N 41°12' W 008°41'0 0.0
2018-Jan-20 08:30N 41°12' W 008°41'0 0.0
2018-Jan-20 08:00N 41°12' W 008°41'0 0.0
2018-Jan-20 07:30N 41°12' W 008°41'0 0.0
2018-Jan-20 06:59N 41°12' W 008°41'0 0.0
2018-Jan-20 06:29N 41°12' W 008°41'0 0.0
2018-Jan-20 05:59N 41°12' W 008°41'0 0.0
2018-Jan-20 05:29N 41°12' W 008°41'0 0.0
2018-Jan-20 04:58N 41°12' W 008°41'0 0.0
2018-Jan-20 04:28N 41°12' W 008°41'0 0.0
2018-Jan-20 03:58N 41°12' W 008°41'0 0.0
2018-Jan-20 03:28N 41°12' W 008°41'0 0.0
2018-Jan-20 02:58N 41°12' W 008°41'0 0.0
2018-Jan-20 02:30N 41°12' W 008°41'0 0.0
2018-Jan-20 02:00N 41°12' W 008°41'0 0.0
2018-Jan-20 01:30N 41°12' W 008°41'0 0.0
2018-Jan-20 01:00N 41°12' W 008°41'0 0.7
2018-Jan-20 00:30N 41°11' W 008°41'2 4.7
2018-Jan-20 00:00N 41°09' W 008°43'3 5.8
2018-Jan-19 23:30N 41°11' W 008°46'123 4.3
2018-Jan-18 19:01N 39°18' W 009°48'412.1
2018-Jan-18 18:39N 39°14' W 009°49'212.2
2018-Jan-18 18:30N 39°12' W 009°49'612.1
2018-Jan-18 18:00N 39°06' W 009°50'612.0
2018-Jan-18 17:30N 38°60' W 009°51'612.0
2018-Jan-18 17:00N 38°54' W 009°51'611.2
2018-Jan-18 16:30N 38°48' W 009°52'611.3
2018-Jan-18 16:00N 38°43' W 009°52'611.2
2018-Jan-18 15:30N 38°37' W 009°50'510.9
2018-Jan-18 15:00N 38°32' W 009°48'510.7
2018-Jan-18 14:30N 38°27' W 009°47'510.8
2018-Jan-18 14:00N 38°21' W 009°45'611.6
2018-Jan-18 13:31N 38°16' W 009°44'611.8
2018-Jan-18 12:59N 38°10' W 009°42'611.6
2018-Jan-18 12:30N 38°04' W 009°41'611.7
2018-Jan-18 12:00N 37°59' W 009°39'611.8
2018-Jan-18 11:30N 37°53' W 009°37'611.8
2018-Jan-18 11:00N 37°47' W 009°36'611.8
2018-Jan-18 10:30N 37°41' W 009°34'712.2
2018-Jan-18 09:57N 37°35' W 009°32'3612.5
2018-Jan-18 07:05N 36°60' W 009°22'212.2
2018-Jan-18 06:58N 36°58' W 009°22'612.1
2018-Jan-18 06:30N 36°53' W 009°20'612.3
2018-Jan-18 06:00N 36°48' W 009°15'1012.3
2018-Jan-18 05:10N 36°43' W 009°04'312.8
2018-Jan-18 04:56N 36°42' W 009°00'613.0
2018-Jan-18 04:30N 36°41' W 008°54'713.5
2018-Jan-18 04:00N 36°39' W 008°46'713.5
2018-Jan-18 03:30N 36°37' W 008°38'713.5
2018-Jan-18 03:00N 36°35' W 008°30'713.8
2018-Jan-18 02:30N 36°33' W 008°21'713.8
2018-Jan-18 01:58N 36°31' W 008°12'  

Dump ship's entire track history